Hauptseite
METAR-TAF:

METAR-TAF

Flughäfen :

Flughafen Brest

Brest, Weißrussland

Breite: 52-06-30N, Länge: 023-53-48E, Höhe: 143 m

Beobachtung

Neuester Wetterbericht von vor 12 Stunden und 43 Minuten, um 13:00 UTC
Wind 6 kt aus Ost/Nordost
Temperatur 23°C
Luftfeuchtigkeit 44%
Luftdruck 1011 hPa
Sichtweite: 6000 m
Durchbrochene Bewölkung in der Höhe von 6000 ft

METAR: UMBB 161300Z 06003MPS 6000 BKN060 23/10 Q1011 NOSIG

Zeit: 04:43 (01:43 UTC)

Prognose

Neuester Wetterbericht von vor 14 Stunden und 43 Minuten, um 11:00 UTC
Gültige Prognose vom 16 um 12 UTC bis 16 um 21 UTC
Wind 6 kt aus Ost/Südost
Sichtweite 10 km oder mehr
Aufgelockert bewölkt in der Höhe von 3000 ft
Zeitweise
vom 16 um 12 UTC bis 16 um 15 UTC
Wind 6 kt aus Südost, Böen bis zu 16 kt

TAF: UMBB 161100Z 1612/1621 12003MPS 9999 SCT030 TX25/1612Z TN19/1621Z TEMPO 1612/1615 14003G08MPS

Wetterbeobachtungen und Prognosen von mehr als 4000 Flughäfen (METAR und TAF Bericht).

Die verfügbaren Stationen werden durch gelbe und rote Markierungen auf der Karte dargestellt.

Führen Sie die Maus auf sie, um den Namen der Station zu sehen.

Darauf klicken, um die Beobachtung von Wetterbeobachtungen und Prognosen zu sehen.

Um die Karte zu ändern : klicken Sie auf den grünen Tasten mit einem schwarzen Kreuz Zum Vergrößern, auf den grünen Button mit einem Gedankenstrich zu verkleinern, oder auf die grünen Pfeile für benachbarte Karten.


METAR-TAF: